Time;durP1;ratioP1;P1;durP2;ratioP2;P2;SDS_P1;SDS_P2;PMS_P1;PMS_P2;Temp;Humidity;BMP_temperature;BMP_pressure;BME280_temperature;BME280_humidity;BME280_pressure;Samples;Min_cycle;Max_cycle;Signal;HPM_P1;HPM_P2
2022/11/01 00:01:40;;;;;;;21.55;11.52;;;16.50;99.90;;;;;;5070887;28;20024;-83
2022/11/01 00:04:06;;;;;;;20.52;11.45;;;16.70;99.90;;;;;;5071790;28;20393;-83
2022/11/01 00:06:31;;;;;;;25.58;10.48;;;16.50;99.90;;;;;;5071968;28;20119;-81
2022/11/01 00:09:00;;;;;;;28.05;10.55;;;16.20;99.90;;;;;;5071476;28;20112;-81
2022/11/01 00:11:25;;;;;;;23.05;10.27;;;15.90;99.90;;;;;;5071495;28;20075;-82
2022/11/01 00:13:51;;;;;;;18.33;10.30;;;16.00;99.90;;;;;;5071921;28;20436;-81
2022/11/01 00:16:18;;;;;;;22.00;10.60;;;16.00;99.90;;;;;;5071744;28;20484;-82
2022/11/01 00:18:44;;;;;;;21.13;11.20;;;16.10;99.90;;;;;;5071451;28;20024;-81
2022/11/01 00:21:11;;;;;;;18.20;9.20;;;16.10;99.90;;;;;;5071458;28;20090;-80
2022/11/01 00:23:37;;;;;;;22.92;11.68;;;16.20;99.90;;;;;;5071633;28;20017;-81
2022/11/01 00:26:03;;;;;;;19.85;10.95;;;16.20;99.90;;;;;;5071270;28;20536;-80
2022/11/01 00:28:29;;;;;;;21.98;12.10;;;16.40;99.90;;;;;;5071462;28;20035;-80
2022/11/01 00:30:56;;;;;;;26.42;12.90;;;16.50;99.90;;;;;;5072087;28;20032;-80
2022/11/01 00:33:22;;;;;;;31.17;13.75;;;16.60;99.90;;;;;;5071476;28;20083;-81
2022/11/01 00:35:48;;;;;;;25.77;13.05;;;16.60;99.90;;;;;;5071399;28;20044;-81
2022/11/01 00:38:15;;;;;;;29.25;13.55;;;16.60;99.90;;;;;;5071537;28;20089;-81
2022/11/01 00:40:42;;;;;;;29.50;14.18;;;16.60;99.90;;;;;;5071868;28;20035;-80
2022/11/01 00:43:08;;;;;;;24.05;14.38;;;16.70;99.90;;;;;;5071682;28;20027;-81
2022/11/01 00:45:33;;;;;;;29.35;14.98;;;16.70;99.90;;;;;;5071633;28;20430;-81
2022/11/01 00:47:59;;;;;;;27.08;15.80;;;16.80;99.90;;;;;;5071782;28;20546;-81
2022/11/01 00:50:25;;;;;;;24.23;15.98;;;16.90;99.90;;;;;;5071606;28;20086;-81
2022/11/01 00:52:51;;;;;;;27.67;16.23;;;16.90;99.90;;;;;;5071375;28;20070;-81
2022/11/01 00:55:16;;;;;;;29.85;16.63;;;17.00;99.90;;;;;;5072062;28;20028;-81
2022/11/01 00:57:45;;;;;;;28.92;15.90;;;16.90;99.90;;;;;;5075183;28;20552;-81
2022/11/01 01:00:13;;;;;;;27.90;16.02;;;16.90;99.90;;;;;;5075055;28;20441;-81
2022/11/01 01:02:39;;;;;;;32.00;17.17;;;17.00;99.90;;;;;;5075161;28;20515;-81
2022/11/01 01:05:05;;;;;;;24.88;16.48;;;17.10;99.90;;;;;;5075305;28;20094;-82
2022/11/01 01:07:31;;;;;;;40.33;18.65;;;17.00;99.90;;;;;;5074715;28;20047;-82
2022/11/01 01:09:57;;;;;;;37.22;18.52;;;17.00;99.90;;;;;;5075372;28;20480;-82
2022/11/01 01:12:22;;;;;;;40.55;18.48;;;17.20;99.90;;;;;;5075029;28;20049;-81
2022/11/01 01:14:48;;;;;;;38.88;19.25;;;17.20;99.90;;;;;;5074990;28;20052;-81
2022/11/01 01:17:14;;;;;;;31.40;17.05;;;17.40;99.90;;;;;;5074925;28;20020;-82
2022/11/01 01:19:40;;;;;;;37.28;16.85;;;17.20;99.90;;;;;;5074818;28;20115;-82
2022/11/01 01:22:05;;;;;;;32.20;16.95;;;17.20;99.90;;;;;;5074721;28;20035;-81
2022/11/01 01:24:31;;;;;;;34.28;16.10;;;17.20;99.90;;;;;;5075021;28;20480;-82
2022/11/01 01:26:57;;;;;;;33.80;17.25;;;17.30;99.90;;;;;;5074698;28;20024;-82
2022/11/01 01:29:23;;;;;;;32.40;16.70;;;17.30;99.90;;;;;;5074657;28;20033;-82
2022/11/01 01:31:49;;;;;;;32.60;17.25;;;17.20;99.90;;;;;;5074442;28;20416;-81
2022/11/01 01:34:15;;;;;;;27.85;14.93;;;17.30;99.90;;;;;;5074302;28;20045;-82
2022/11/01 01:36:41;;;;;;;27.67;15.15;;;17.30;99.90;;;;;;5074586;28;20024;-82
2022/11/01 01:39:06;;;;;;;26.70;14.95;;;17.10;99.90;;;;;;5074586;28;20036;-81
2022/11/01 01:44:50;;;;;;;27.88;16.10;;;17.10;99.90;;;;;;5074382;28;20051;-82
2022/11/01 01:47:27;;;;;;;35.78;17.45;;;17.00;99.90;;;;;;5074274;28;20048;-82
2022/11/01 01:49:58;;;;;;;35.03;17.50;;;17.00;99.90;;;;;;5074273;28;20074;-81
2022/11/01 01:52:26;;;;;;;34.38;16.85;;;17.10;99.90;;;;;;5074142;28;20035;-82
2022/11/01 01:54:52;;;;;;;31.70;16.88;;;17.00;99.90;;;;;;5074387;28;20385;-81
2022/11/01 01:57:19;;;;;;;36.35;17.35;;;17.20;99.90;;;;;;5074045;28;20560;-82
2022/11/01 01:59:45;;;;;;;32.97;17.35;;;17.10;99.90;;;;;;5074108;28;20039;-82
2022/11/01 02:02:12;;;;;;;33.92;17.10;;;17.10;99.90;;;;;;5074347;28;20056;-82
2022/11/01 02:04:48;;;;;;;28.27;15.35;;;17.10;99.90;;;;;;5074155;28;20118;-82
2022/11/01 02:07:14;;;;;;;31.75;17.15;;;17.00;99.90;;;;;;5072990;28;20025;-81
2022/11/01 02:09:42;;;;;;;31.33;15.70;;;16.90;99.90;;;;;;5074034;28;20036;-82
2022/11/01 02:12:09;;;;;;;31.67;16.50;;;16.70;99.90;;;;;;5089651;28;20031;-82
2022/11/01 02:14:35;;;;;;;32.90;16.02;;;16.70;99.90;;;;;;5073838;28;20024;-82
2022/11/01 02:17:21;;;;;;;30.83;15.85;;;16.70;99.90;;;;;;5073758;28;20546;-82
2022/11/01 02:20:08;;;;;;;26.60;15.40;;;16.70;99.90;;;;;;5073316;28;20036;-82
2022/11/01 02:23:04;;;;;;;26.13;14.65;;;16.70;99.90;;;;;;5073723;28;20447;-83
2022/11/01 02:25:57;;;;;;;24.75;14.43;;;16.60;99.90;;;;;;5073585;28;20114;-82
2022/11/01 02:28:28;;;;;;;21.92;13.18;;;16.60;99.90;;;;;;5073504;28;20449;-82
2022/11/01 02:31:16;;;;;;;20.98;12.73;;;16.60;99.90;;;;;;5073776;28;20031;-82
2022/11/01 02:33:47;;;;;;;18.13;11.10;;;16.50;99.90;;;;;;5053737;28;20515;-82
2022/11/01 02:36:23;;;;;;;22.70;12.20;;;16.50;99.90;;;;;;5073501;28;20511;-82
2022/11/01 02:38:56;;;;;;;19.73;12.70;;;16.50;99.90;;;;;;5073681;28;20056;-82
2022/11/01 02:41:38;;;;;;;19.90;11.40;;;16.50;99.90;;;;;;5073329;28;20040;-81
2022/11/01 02:44:11;;;;;;;19.58;11.13;;;16.40;99.90;;;;;;5073184;28;20020;-81
2022/11/01 02:47:01;;;;;;;16.02;10.20;;;16.50;99.90;;;;;;5071963;28;20404;-82
2022/11/01 02:49:43;;;;;;;16.65;10.05;;;16.50;99.90;;;;;;5072902;28;20028;-82
2022/11/01 02:52:13;;;;;;;16.00;9.73;;;16.50;99.90;;;;;;5073246;28;20021;-82
2022/11/01 02:54:44;;;;;;;18.40;10.18;;;16.60;99.90;;;;;;5073344;28;20038;-82
2022/11/01 02:57:16;;;;;;;16.45;9.98;;;16.60;99.90;;;;;;5072954;28;20028;-82
2022/11/01 02:59:44;;;;;;;19.83;10.95;;;16.60;99.90;;;;;;5073010;28;20032;-82
2022/11/01 03:02:17;;;;;;;19.27;10.52;;;16.60;99.90;;;;;;5072855;28;20055;-82
2022/11/01 03:04:42;;;;;;;20.15;11.23;;;16.50;99.90;;;;;;5072609;28;20021;-82
2022/11/01 03:07:11;;;;;;;22.42;11.40;;;16.50;99.90;;;;;;5072829;28;20063;-81
2022/11/01 03:09:38;;;;;;;20.08;11.13;;;16.50;99.90;;;;;;5072660;28;20056;-82
2022/11/01 03:12:11;;;;;;;16.92;10.90;;;16.50;99.90;;;;;;5072711;28;20028;-82
2022/11/01 03:15:00;;;;;;;21.80;11.48;;;16.50;99.90;;;;;;5072682;28;20051;-82
2022/11/01 03:17:42;;;;;;;18.55;12.25;;;16.50;99.90;;;;;;5072747;28;20024;-82
2022/11/01 03:20:11;;;;;;;22.45;12.45;;;16.70;99.90;;;;;;5072544;28;20058;-82
2022/11/01 03:22:45;;;;;;;22.15;12.82;;;16.60;99.90;;;;;;5072603;28;20028;-82
2022/11/01 03:28:01;;;;;;;17.27;10.55;;;16.60;99.90;;;;;;5072729;28;20888;-82
2022/11/01 03:30:30;;;;;;;19.10;10.68;;;16.60;99.90;;;;;;5072557;28;20384;-83
2022/11/01 03:32:57;;;;;;;17.13;10.52;;;16.70;99.90;;;;;;5071951;28;20020;-83
2022/11/01 03:35:30;;;;;;;15.63;10.18;;;16.70;99.90;;;;;;5071717;28;20110;-83
2022/11/01 03:38:00;;;;;;;17.95;10.50;;;16.80;99.90;;;;;;5072325;28;20016;-82
2022/11/01 03:40:28;;;;;;;13.07;9.43;;;16.90;99.90;;;;;;5072131;28;20714;-82
2022/11/01 03:43:05;;;;;;;18.75;10.60;;;16.80;99.90;;;;;;5072307;28;20916;-83
2022/11/01 03:45:34;;;;;;;19.63;11.27;;;17.00;99.90;;;;;;5072635;28;20027;-82
2022/11/01 03:48:00;;;;;;;16.67;10.70;;;16.90;99.90;;;;;;5071805;28;20024;-83
2022/11/01 03:50:27;;;;;;;14.90;9.50;;;16.90;99.90;;;;;;5072165;28;20418;-81
2022/11/01 03:52:53;;;;;;;16.45;10.10;;;16.80;99.90;;;;;;5072166;28;20108;-82
2022/11/01 03:55:20;;;;;;;17.70;9.65;;;16.80;99.90;;;;;;5072099;28;20048;-83
2022/11/01 03:57:54;;;;;;;15.73;9.45;;;16.90;99.90;;;;;;5071972;28;20523;-82
2022/11/01 04:00:21;;;;;;;16.02;9.57;;;16.80;99.90;;;;;;5072375;28;20029;-82
2022/11/01 04:02:51;;;;;;;12.10;8.50;;;16.80;99.90;;;;;;5071709;28;20077;-83
2022/11/01 04:05:18;;;;;;;15.50;8.55;;;16.80;99.90;;;;;;5072087;28;20412;-83
2022/11/01 04:07:44;;;;;;;16.83;9.48;;;16.70;99.90;;;;;;5071805;28;20035;-83
2022/11/01 04:10:11;;;;;;;13.15;8.93;;;16.90;99.90;;;;;;5072231;28;20021;-83
2022/11/01 04:12:37;;;;;;;12.98;7.78;;;16.90;99.90;;;;;;5071844;28;20020;-83
2022/11/01 04:20:32;;;;;;;10.27;7.25;;;17.00;99.90;;;;;;5071732;28;20063;-83
2022/11/01 04:23:02;;;;;;;11.38;8.18;;;16.90;99.90;;;;;;5072140;28;20496;-83
2022/11/01 04:25:29;;;;;;;9.52;7.13;;;16.90;99.90;;;;;;5071808;28;20020;-83
2022/11/01 04:27:55;;;;;;;9.43;6.60;;;16.90;99.90;;;;;;5071780;28;20109;-83
2022/11/01 04:30:22;;;;;;;9.07;7.15;;;16.90;99.90;;;;;;5072005;28;20029;-83
2022/11/01 04:32:48;;;;;;;10.88;6.85;;;16.90;99.90;;;;;;5076015;28;20375;-83
2022/11/01 04:35:13;;;;;;;12.98;6.70;;;17.00;99.90;;;;;;5075258;28;20153;-83
2022/11/01 04:37:39;;;;;;;12.82;5.90;;;16.90;99.90;;;;;;5075461;28;20025;-83
2022/11/01 04:40:08;;;;;;;7.65;5.53;;;16.90;99.90;;;;;;5076020;28;20452;-83
2022/11/01 04:42:35;;;;;;;6.00;4.85;;;16.90;99.90;;;;;;5075569;28;20111;-83
2022/11/01 04:45:01;;;;;;;9.32;5.03;;;16.70;99.90;;;;;;5075236;28;20021;-83
2022/11/01 04:47:27;;;;;;;8.35;5.53;;;16.80;99.90;;;;;;5075513;28;20448;-83
2022/11/01 04:49:53;;;;;;;7.70;5.07;;;16.80;99.90;;;;;;5075306;28;20063;-83
2022/11/01 04:52:18;;;;;;;6.68;4.60;;;16.90;99.90;;;;;;5075600;28;20009;-83
2022/11/01 04:54:44;;;;;;;6.68;4.80;;;16.80;99.90;;;;;;5073842;28;20025;-83
2022/11/01 04:57:21;;;;;;;7.30;4.00;;;16.70;99.90;;;;;;5075528;28;20024;-84
2022/11/01 04:59:56;;;;;;;4.60;3.65;;;16.80;99.90;;;;;;5074758;28;20438;-83
2022/11/01 05:02:23;;;;;;;8.30;3.88;;;16.80;99.90;;;;;;5075178;28;20021;-83
2022/11/01 05:04:49;;;;;;;5.75;3.55;;;16.70;99.90;;;;;;5075479;28;20025;-83
2022/11/01 05:07:15;;;;;;;5.80;3.42;;;16.80;99.90;;;;;;5075076;28;20020;-83
2022/11/01 05:09:41;;;;;;;7.60;3.63;;;16.70;99.90;;;;;;5075052;28;20051;-84
2022/11/01 05:12:08;;;;;;;4.45;3.35;;;16.90;99.90;;;;;;5074998;28;20020;-83
2022/11/01 05:14:34;;;;;;;3.40;2.95;;;16.80;99.90;;;;;;5074863;28;20515;-84
2022/11/01 05:16:59;;;;;;;3.80;2.88;;;16.70;99.90;;;;;;5074990;28;20108;-84
2022/11/01 05:19:25;;;;;;;3.53;2.72;;;16.70;99.90;;;;;;5074891;28;20539;-84
2022/11/01 05:21:51;;;;;;;4.93;2.60;;;16.70;99.90;;;;;;5074774;28;20029;-82
2022/11/01 05:24:17;;;;;;;4.22;2.75;;;16.80;99.90;;;;;;5074805;28;20373;-84
2022/11/01 05:26:43;;;;;;;3.28;2.33;;;16.80;99.90;;;;;;5075019;28;20538;-83
2022/11/01 05:29:09;;;;;;;5.60;2.70;;;16.80;99.90;;;;;;5074426;28;20021;-83
2022/11/01 05:31:36;;;;;;;2.90;2.35;;;16.80;99.90;;;;;;5074621;28;20374;-83
2022/11/01 05:34:02;;;;;;;4.80;2.67;;;16.70;99.90;;;;;;5074236;28;20044;-83
2022/11/01 05:36:28;;;;;;;2.70;1.98;;;16.70;99.90;;;;;;5074794;28;20416;-84
2022/11/01 05:38:57;;;;;;;5.35;2.17;;;16.70;99.90;;;;;;5074463;28;20075;-84
2022/11/01 05:41:24;;;;;;;3.42;2.10;;;16.70;99.90;;;;;;5074312;28;20059;-84
2022/11/01 05:43:49;;;;;;;3.38;2.20;;;16.60;99.90;;;;;;5073133;28;20093;-84
2022/11/01 05:46:15;;;;;;;6.22;2.13;;;16.70;99.90;;;;;;5074727;28;20020;-84
2022/11/01 05:48:41;;;;;;;4.35;1.80;;;16.70;99.90;;;;;;5074393;28;20059;-84
2022/11/01 05:51:07;;;;;;;4.60;1.95;;;16.70;99.90;;;;;;5074329;28;20082;-84
2022/11/01 05:53:33;;;;;;;2.55;1.67;;;16.60;99.90;;;;;;5074137;28;20070;-83
2022/11/01 05:55:59;;;;;;;4.40;2.20;;;16.60;99.90;;;;;;5074583;28;20033;-84
2022/11/01 05:58:25;;;;;;;7.80;2.25;;;16.70;99.90;;;;;;5074019;28;20545;-84
2022/11/01 06:00:58;;;;;;;5.60;4.43;;;16.50;99.90;;;;;;5073792;28;20036;-84
2022/11/01 06:03:23;;;;;;;8.40;3.88;;;16.60;99.90;;;;;;5072410;28;20025;-84
2022/11/01 06:05:49;;;;;;;7.20;4.10;;;16.70;99.90;;;;;;5073177;28;20027;-84
2022/11/01 06:08:15;;;;;;;7.90;4.90;;;16.80;99.90;;;;;;5074348;28;20059;-85
2022/11/01 06:10:41;;;;;;;10.18;6.47;;;16.70;99.90;;;;;;5074025;28;20028;-83
2022/11/01 06:13:07;;;;;;;13.13;6.38;;;16.80;99.90;;;;;;5073595;28;20047;-82
2022/11/01 06:15:32;;;;;;;11.25;7.35;;;16.90;99.90;;;;;;5074260;28;20416;-81
2022/11/01 06:17:58;;;;;;;9.57;7.03;;;17.00;99.90;;;;;;5073044;28;20120;-82
2022/11/01 06:20:25;;;;;;;11.98;8.43;;;16.90;99.90;;;;;;5072302;28;20147;-82
2022/11/01 06:22:51;;;;;;;13.82;7.95;;;16.80;99.90;;;;;;5074155;28;20432;-82
2022/11/01 06:25:17;;;;;;;11.73;9.23;;;16.70;99.90;;;;;;5073625;28;20032;-82
2022/11/01 06:27:43;;;;;;;13.90;9.50;;;16.60;99.90;;;;;;5072135;28;20074;-83
2022/11/01 06:30:09;;;;;;;14.98;9.25;;;16.70;99.90;;;;;;5073531;28;20025;-85
2022/11/01 06:32:35;;;;;;;13.20;7.70;;;16.90;99.90;;;;;;5073506;28;20035;-85
2022/11/01 06:35:00;;;;;;;9.77;6.47;;;16.80;99.90;;;;;;5073159;28;20135;-86
2022/11/01 06:37:26;;;;;;;12.95;8.02;;;16.80;99.90;;;;;;5073402;28;20031;-86
2022/11/01 06:39:51;;;;;;;13.82;8.55;;;16.80;99.90;;;;;;5073615;28;20536;-85
2022/11/01 06:42:17;;;;;;;13.38;8.27;;;16.70;99.90;;;;;;5072946;28;20052;-84
2022/11/01 06:44:43;;;;;;;15.57;8.10;;;16.70;99.90;;;;;;5073431;28;20020;-86
2022/11/01 06:47:09;;;;;;;13.98;7.95;;;16.70;99.90;;;;;;5072856;28;20039;-86
2022/11/01 06:49:35;;;;;;;10.85;7.63;;;16.50;99.90;;;;;;5072186;28;20051;-86
2022/11/01 06:52:00;;;;;;;13.40;8.77;;;16.70;99.90;;;;;;5072971;28;20032;-86
2022/11/01 06:54:26;;;;;;;10.32;8.23;;;16.70;99.90;;;;;;5072743;28;20020;-86
2022/11/01 06:56:52;;;;;;;14.07;8.68;;;16.90;99.90;;;;;;5072749;28;20025;-86
2022/11/01 06:59:17;;;;;;;12.18;9.70;;;16.80;99.90;;;;;;5073335;28;20188;-86
2022/11/01 07:01:43;;;;;;;14.38;9.80;;;16.70;99.90;;;;;;5072710;28;20032;-86
2022/11/01 07:04:12;;;;;;;18.85;10.88;;;16.50;99.90;;;;;;5076664;28;20016;-86
2022/11/01 07:06:37;;;;;;;17.40;11.90;;;16.60;99.90;;;;;;5073622;28;20570;-86
2022/11/01 07:09:04;;;;;;;15.25;11.85;;;16.70;99.90;;;;;;5072781;28;20048;-86
2022/11/01 07:11:30;;;;;;;18.30;11.82;;;17.00;99.90;;;;;;5072923;28;20146;-86
2022/11/01 07:13:55;;;;;;;16.67;12.10;;;17.00;99.90;;;;;;5072635;28;20046;-86
2022/11/01 07:16:21;;;;;;;15.10;12.13;;;17.00;99.90;;;;;;5072601;28;20048;-86
2022/11/01 07:18:46;;;;;;;15.15;11.43;;;16.90;99.90;;;;;;5072770;28;20052;-86
2022/11/01 07:21:12;;;;;;;14.98;11.32;;;16.80;99.90;;;;;;5072886;28;20044;-87
2022/11/01 07:23:38;;;;;;;17.23;11.80;;;16.80;99.90;;;;;;5072591;28;20055;-86
2022/11/01 07:26:03;;;;;;;15.07;11.77;;;16.90;99.90;;;;;;5072189;28;20042;-86
2022/11/01 07:28:30;;;;;;;15.55;11.00;;;17.00;99.90;;;;;;5072474;28;20044;-86
2022/11/01 07:30:55;;;;;;;16.08;11.38;;;17.10;99.90;;;;;;5072342;28;20060;-86
2022/11/01 07:33:21;;;;;;;16.92;10.80;;;17.00;99.90;;;;;;5072212;28;20049;-86
2022/11/01 07:35:48;;;;;;;16.92;11.25;;;17.00;99.90;;;;;;5072187;28;20051;-86
2022/11/01 07:38:14;;;;;;;16.42;10.85;;;16.90;99.90;;;;;;5072654;28;20519;-86
2022/11/01 07:40:40;;;;;;;17.55;11.57;;;17.00;99.90;;;;;;5070640;28;20156;-86
2022/11/01 07:43:06;;;;;;;15.25;11.15;;;17.00;99.90;;;;;;5072274;28;20099;-86
2022/11/01 07:45:34;;;;;;;15.57;11.52;;;17.00;99.90;;;;;;5072262;28;20046;-86
2022/11/01 07:48:01;;;;;;;17.02;10.95;;;17.00;99.90;;;;;;5072149;28;20089;-86
2022/11/01 07:50:28;;;;;;;15.15;10.48;;;16.90;99.90;;;;;;5072521;28;20111;-86
2022/11/01 07:53:05;;;;;;;14.13;10.13;;;16.90;99.90;;;;;;5070984;28;20418;-86
2022/11/01 07:55:31;;;;;;;16.17;10.48;;;16.90;99.90;;;;;;5072229;28;20024;-86
2022/11/01 07:57:57;;;;;;;12.73;10.05;;;17.10;99.90;;;;;;5072150;28;20032;-86
2022/11/01 08:00:23;;;;;;;16.90;11.18;;;17.20;99.90;;;;;;5071912;28;20036;-86
2022/11/01 08:02:49;;;;;;;12.25;9.57;;;17.30;99.90;;;;;;5072139;28;20052;-86
2022/11/01 08:05:14;;;;;;;10.30;8.80;;;17.40;99.90;;;;;;5071420;28;20086;-86
2022/11/01 08:07:40;;;;;;;9.00;7.00;;;17.30;99.90;;;;;;5073061;28;20095;-86
2022/11/01 08:10:08;;;;;;;8.48;7.30;;;17.40;99.90;;;;;;5072049;28;20074;-86
2022/11/01 08:12:35;;;;;;;15.00;9.98;;;17.30;99.90;;;;;;5072048;28;20116;-86
2022/11/01 08:15:01;;;;;;;11.05;8.82;;;17.30;99.90;;;;;;5072190;28;20028;-86
2022/11/01 08:17:28;;;;;;;10.25;8.70;;;17.40;99.90;;;;;;5072217;28;20020;-86
2022/11/01 08:19:53;;;;;;;11.82;8.68;;;17.30;99.90;;;;;;5071768;28;20102;-86
2022/11/01 08:22:19;;;;;;;8.98;6.63;;;17.30;99.90;;;;;;5072162;28;20029;-86
2022/11/01 08:24:45;;;;;;;9.00;5.78;;;17.20;99.90;;;;;;5071960;28;20063;-86
2022/11/01 08:27:10;;;;;;;6.82;5.43;;;17.00;99.90;;;;;;5071769;28;20025;-86
2022/11/01 08:29:36;;;;;;;9.00;5.95;;;17.40;99.90;;;;;;5071730;28;20028;-86
2022/11/01 08:32:02;;;;;;;7.30;5.43;;;17.60;99.90;;;;;;5072030;28;20344;-86
2022/11/01 08:34:29;;;;;;;7.22;4.97;;;18.00;99.90;;;;;;5071277;28;20040;-86
2022/11/01 08:36:56;;;;;;;7.88;5.57;;;18.50;99.90;;;;;;5072249;28;20055;-87
2022/11/01 08:39:21;;;;;;;8.00;5.35;;;18.90;99.90;;;;;;5072082;28;20480;-86
2022/11/01 08:41:48;;;;;;;6.07;4.28;;;20.00;99.90;;;;;;5071827;28;20028;-86
2022/11/01 08:44:16;;;;;;;5.68;4.43;;;20.30;99.90;;;;;;5071720;28;20028;-86
2022/11/01 08:46:42;;;;;;;8.27;3.58;;;21.30;99.90;;;;;;5071659;28;20496;-86
2022/11/01 08:49:09;;;;;;;5.05;3.03;;;20.10;99.90;;;;;;5071495;28;20035;-86
2022/11/01 08:51:35;;;;;;;4.70;3.78;;;19.10;99.90;;;;;;5071144;28;20039;-86
2022/11/01 08:54:00;;;;;;;5.93;3.40;;;18.40;99.90;;;;;;5071903;28;20032;-86
2022/11/01 08:56:26;;;;;;;4.70;3.30;;;18.20;99.90;;;;;;5071634;28;20036;-86
2022/11/01 08:58:53;;;;;;;5.30;3.17;;;18.20;99.90;;;;;;5071505;28;20028;-86
2022/11/01 09:01:20;;;;;;;4.97;3.15;;;18.40;99.90;;;;;;5071799;28;20042;-86
2022/11/01 09:03:46;;;;;;;3.03;2.63;;;18.30;99.90;;;;;;5069745;28;20443;-86
2022/11/01 09:06:12;;;;;;;4.43;3.40;;;18.10;99.90;;;;;;5070200;28;20024;-86
2022/11/01 09:08:37;;;;;;;4.75;2.78;;;18.00;99.90;;;;;;5071581;28;20074;-86
2022/11/01 09:11:05;;;;;;;7.13;2.92;;;17.60;99.90;;;;;;5071383;28;20032;-86
2022/11/01 09:13:33;;;;;;;5.10;3.25;;;17.80;99.90;;;;;;5071375;28;20104;-86
2022/11/01 09:16:04;;;;;;;5.80;3.05;;;18.00;99.90;;;;;;5071638;28;20060;-86
2022/11/01 09:18:29;;;;;;;3.58;2.42;;;18.20;99.90;;;;;;5074941;28;20551;-86
2022/11/01 09:20:55;;;;;;;3.97;2.40;;;18.30;99.90;;;;;;5073158;28;20044;-86
2022/11/01 09:23:21;;;;;;;4.53;2.60;;;18.30;99.90;;;;;;5074956;28;20477;-86
2022/11/01 09:25:47;;;;;;;4.47;2.45;;;18.50;99.90;;;;;;5074637;28;20044;-86
2022/11/01 09:28:13;;;;;;;5.80;2.60;;;18.20;99.90;;;;;;5074635;28;20029;-86
2022/11/01 09:30:39;;;;;;;4.25;2.78;;;17.90;99.90;;;;;;5074643;28;20397;-86
2022/11/01 09:33:06;;;;;;;2.90;2.60;;;18.00;99.90;;;;;;5074630;28;20372;-85
2022/11/01 09:35:33;;;;;;;3.53;2.63;;;17.80;99.90;;;;;;5074300;28;20059;-86
2022/11/01 09:38:00;;;;;;;3.45;2.80;;;17.60;99.90;;;;;;5074498;28;20020;-86
2022/11/01 09:40:29;;;;;;;5.47;2.88;;;17.90;99.90;;;;;;5074415;28;20449;-86
2022/11/01 09:42:56;;;;;;;3.97;2.80;;;18.00;99.90;;;;;;5074364;28;20012;-86
2022/11/01 09:45:26;;;;;;;4.80;2.78;;;18.20;99.90;;;;;;5074350;28;20502;-85
2022/11/01 09:47:54;;;;;;;4.25;2.50;;;18.50;99.90;;;;;;5074223;28;20047;-86
2022/11/01 09:50:28;;;;;;;3.55;2.30;;;18.60;99.90;;;;;;5073878;28;20388;-86
2022/11/01 09:52:55;;;;;;;5.05;2.60;;;18.30;99.90;;;;;;5074173;28;20051;-86
2022/11/01 09:55:35;;;;;;;3.28;2.30;;;18.10;99.90;;;;;;5074312;28;20032;-86
2022/11/01 09:58:15;;;;;;;5.38;2.47;;;18.20;99.90;;;;;;5074291;28;20021;-86
2022/11/01 10:00:47;;;;;;;4.35;2.30;;;18.10;99.90;;;;;;5074419;28;20048;-86
2022/11/01 10:03:32;;;;;;;5.88;2.20;;;18.30;99.90;;;;;;5074020;28;20560;-86
2022/11/01 10:06:19;;;;;;;3.83;2.10;;;18.70;99.90;;;;;;5073924;28;20104;-86
2022/11/01 10:09:16;;;;;;;4.18;2.20;;;19.30;99.90;;;;;;5070523;28;20021;-86
2022/11/01 10:11:44;;;;;;;3.45;2.20;;;20.00;99.90;;;;;;5074023;28;20510;-87
2022/11/01 10:14:28;;;;;;;4.38;1.95;;;22.50;99.90;;;;;;5073912;28;20024;-86
2022/11/01 10:17:14;;;;;;;4.07;2.10;;;22.50;99.90;;;;;;5073722;28;20513;-87
2022/11/01 10:19:48;;;;;;;6.18;1.98;;;28.40;99.90;;;;;;5073569;28;20078;-87
2022/11/01 10:22:23;;;;;;;3.17;2.22;;;27.20;99.90;;;;;;5073689;28;20032;-87
2022/11/01 10:25:00;;;;;;;2.47;1.60;;;29.90;99.90;;;;;;5074167;28;20024;-86
2022/11/01 10:27:54;;;;;;;2.15;1.50;;;32.00;99.90;;;;;;5073589;28;20025;-87
2022/11/01 10:30:21;;;;;;;2.22;1.40;;;29.10;99.90;;;;;;5073406;28;20040;-87
2022/11/01 10:33:01;;;;;;;2.08;1.60;;;30.20;99.90;;;;;;5073597;28;20024;-87
2022/11/01 10:35:36;;;;;;;4.22;1.27;;;31.80;99.90;;;;;;5073069;28;20520;-87
2022/11/01 10:38:06;;;;;;;4.05;1.58;;;32.80;99.90;;;;;;5073518;28;20027;-87
2022/11/01 10:40:40;;;;;;;3.72;1.48;;;28.50;99.90;;;;;;5073166;28;20527;-87
2022/11/01 10:43:15;;;;;;;1.20;1.10;;;29.50;99.90;;;;;;5073225;28;20048;-86
2022/11/01 10:45:43;;;;;;;2.60;1.20;;;26.80;99.90;;;;;;5073178;28;20579;-87
2022/11/01 10:48:37;;;;;;;2.58;1.40;;;25.50;99.90;;;;;;5072885;28;20484;-87
2022/11/01 10:51:05;;;;;;;2.83;1.40;;;29.30;99.90;;;;;;5060154;28;20032;-87
2022/11/01 10:53:41;;;;;;;1.63;0.95;;;31.60;99.90;;;;;;5073008;28;20028;-87
2022/11/01 10:56:11;;;;;;;2.22;1.42;;;30.60;99.90;;;;;;5072993;28;20035;-87
2022/11/01 10:58:49;;;;;;;3.20;1.20;;;28.60;1.00;;;;;;5073057;28;20103;-87
2022/11/01 11:01:21;;;;;;;3.13;1.15;;;27.20;99.90;;;;;;5072880;28;20036;-86
2022/11/01 11:03:47;;;;;;;2.67;1.42;;;26.00;99.90;;;;;;5072810;28;20385;-87
2022/11/01 11:06:17;;;;;;;2.53;1.27;;;24.50;99.90;;;;;;5072802;28;20111;-87
2022/11/01 11:08:48;;;;;;;3.15;1.42;;;23.40;99.90;;;;;;5072795;28;20033;-87
2022/11/01 11:11:15;;;;;;;2.08;1.30;;;23.40;99.90;;;;;;5072946;28;20084;-87
2022/11/01 11:13:45;;;;;;;2.58;1.30;;;23.10;99.90;;;;;;5072628;28;20031;-87
2022/11/01 11:16:44;;;;;;;3.10;1.45;;;23.10;99.90;;;;;;5072637;28;20024;-87
2022/11/01 11:19:37;;;;;;;2.47;1.48;;;23.50;99.90;;;;;;5072675;28;20033;-87
2022/11/01 11:22:06;;;;;;;1.67;1.42;;;23.40;99.90;;;;;;5072715;28;20032;-87
2022/11/01 11:24:33;;;;;;;2.25;1.50;;;24.00;99.90;;;;;;5072517;28;20431;-87
2022/11/01 11:27:01;;;;;;;2.95;1.48;;;27.30;99.90;;;;;;5072769;28;20095;-86
2022/11/01 11:29:59;;;;;;;3.65;1.52;;;25.70;99.90;;;;;;5072271;28;20086;-87
2022/11/01 11:32:27;;;;;;;1.65;1.27;;;28.20;99.90;;;;;;5071814;28;20035;-86
2022/11/01 11:35:18;;;;;;;1.67;1.20;;;27.40;99.90;;;;;;5072047;28;20405;-87
2022/11/01 11:37:56;;;;;;;2.45;1.30;;;25.50;99.90;;;;;;5060020;28;20119;-86
2022/11/01 11:40:26;;;;;;;3.30;1.48;;;25.00;99.90;;;;;;5071657;28;20526;-87
2022/11/01 11:43:13;;;;;;;2.83;1.70;;;24.70;99.90;;;;;;5072015;28;20028;-86
2022/11/01 11:45:39;;;;;;;3.70;1.30;;;25.10;99.90;;;;;;5072345;28;20032;-86
2022/11/01 11:48:21;;;;;;;1.35;1.23;;;27.40;99.90;;;;;;5072251;28;20032;-86
2022/11/01 11:51:00;;;;;;;3.53;1.40;;;26.70;99.90;;;;;;5072209;28;20392;-87
2022/11/01 11:53:28;;;;;;;2.47;1.25;;;31.70;99.90;;;;;;5072166;28;20048;-87
2022/11/01 11:55:56;;;;;;;1.98;1.25;;;31.30;99.90;;;;;;5072036;28;20074;-86
2022/11/01 11:58:26;;;;;;;1.77;1.23;;;29.20;99.90;;;;;;5072094;28;20020;-86
2022/11/01 12:00:58;;;;;;;1.83;1.20;;;29.30;99.90;;;;;;5071794;28;20037;-86
2022/11/01 12:03:24;;;;;;;2.25;1.30;;;32.60;99.90;;;;;;5072479;28;20036;-87
2022/11/01 12:06:05;;;;;;;3.55;1.20;;;34.80;99.90;;;;;;5071953;28;20043;-87
2022/11/01 12:08:47;;;;;;;2.25;1.30;;;37.60;99.90;;;;;;5072068;28;20025;-87
2022/11/01 12:11:14;;;;;;;3.53;1.10;;;38.30;99.90;;;;;;5072007;28;20038;-87
2022/11/01 12:14:01;;;;;;;1.67;1.10;;;35.90;99.90;;;;;;5071912;28;20028;-87
2022/11/01 12:16:27;;;;;;;2.38;1.20;;;31.60;99.90;;;;;;5071484;28;20036;-87
2022/11/01 12:18:56;;;;;;;4.95;1.17;;;29.40;99.90;;;;;;5070811;28;20029;-87
2022/11/01 12:21:31;;;;;;;2.08;1.20;;;28.20;99.90;;;;;;5072233;28;20043;-86
2022/11/01 12:24:04;;;;;;;1.98;1.20;;;30.60;99.90;;;;;;5070539;28;20027;-87
2022/11/01 12:26:33;;;;;;;1.95;1.30;;;33.30;99.90;;;;;;5071944;28;20036;-87
2022/11/01 12:29:02;;;;;;;3.13;1.40;;;36.50;99.90;;;;;;5071422;28;20017;-86
2022/11/01 12:31:28;;;;;;;2.75;1.10;;;36.60;99.90;;;;;;5071738;28;20358;-87
2022/11/01 12:34:22;;;;;;;2.95;1.20;;;30.30;99.90;;;;;;5071462;28;20053;-87
2022/11/01 12:37:01;;;;;;;3.53;1.20;;;27.20;99.90;;;;;;5068249;28;20053;-87
2022/11/01 12:40:01;;;;;;;2.55;1.63;;;27.00;99.90;;;;;;5071698;28;20035;-87
2022/11/01 12:43:02;;;;;;;3.53;1.10;;;29.40;99.90;;;;;;5070425;28;20119;-87
2022/11/01 12:45:50;;;;;;;2.17;1.33;;;34.00;99.90;;;;;;5049932;28;20025;-87
2022/11/01 12:48:34;;;;;;;2.65;1.15;;;36.00;99.90;;;;;;5071662;28;20025;-87
2022/11/01 12:51:08;;;;;;;1.92;1.30;;;35.70;99.90;;;;;;5071498;28;20028;-87
2022/11/01 12:53:40;;;;;;;1.50;1.40;;;36.50;99.90;;;;;;5075851;28;20097;-87
2022/11/01 12:56:06;;;;;;;2.65;1.38;;;37.20;99.90;;;;;;5075387;28;20021;-87
2022/11/01 12:58:32;;;;;;;2.65;1.38;;;36.40;99.90;;;;;;5074964;28;20388;-87
2022/11/01 13:01:14;;;;;;;4.10;1.35;;;36.00;99.90;;;;;;5075218;28;20032;-87
2022/11/01 13:04:11;;;;;;;3.38;1.40;;;34.00;99.90;;;;;;5075490;28;20024;-87